Time;durP1;ratioP1;P1;durP2;ratioP2;P2;SDS_P1;SDS_P2;PMS_P1;PMS_P2;Temp;Humidity;BMP_temperature;BMP_pressure;BME280_temperature;BME280_humidity;BME280_pressure;Samples;Min_cycle;Max_cycle;Signal;HPM_P1;HPM_P2
2021/11/11 00:01:01;;;;;;;20.05;15.52;;;;;;;;;;5122697;27;20424;-82
2021/11/11 00:03:28;;;;;;;20.97;14.93;;;;;;;;;;5120563;28;20413;-81
2021/11/11 00:05:56;;;;;;;18.55;14.38;;;;;;;;;;5128534;28;20413;-82
2021/11/11 00:08:24;;;;;;;19.00;14.45;;;;;;;;;;5129443;28;20414;-83
2021/11/11 00:10:51;;;;;;;18.63;13.93;;;;;;;;;;5121270;28;20384;-81
2021/11/11 00:13:19;;;;;;;18.60;13.93;;;;;;;;;;5117938;28;20943;-82
2021/11/11 00:15:47;;;;;;;19.73;13.85;;;;;;;;;;5121796;28;21093;-82
2021/11/11 00:18:13;;;;;;;17.55;13.80;;;;;;;;;;5117851;27;20963;-83
2021/11/11 00:20:41;;;;;;;17.20;13.43;;;;;;;;;;5117952;28;20424;-82
2021/11/11 00:23:08;;;;;;;19.20;13.68;;;;;;;;;;5121797;28;20407;-81
2021/11/11 00:25:37;;;;;;;17.83;13.47;;;;;;;;;;5117640;28;20824;-82
2021/11/11 00:28:05;;;;;;;17.37;13.20;;;;;;;;;;5117440;28;20401;-81
2021/11/11 00:30:32;;;;;;;17.30;13.27;;;;;;;;;;5117667;28;20413;-82
2021/11/11 00:32:59;;;;;;;17.93;13.10;;;;;;;;;;5126658;27;20409;-83
2021/11/11 00:35:28;;;;;;;18.55;13.60;;;;;;;;;;5117668;28;20410;-82
2021/11/11 00:37:57;;;;;;;16.65;13.18;;;;;;;;;;5120726;28;20393;-82
2021/11/11 00:40:25;;;;;;;18.02;13.25;;;;;;;;;;5123267;27;20480;-82
2021/11/11 00:42:54;;;;;;;16.83;12.82;;;;;;;;;;5128270;27;20399;-82
2021/11/11 00:45:21;;;;;;;17.92;13.65;;;;;;;;;;5126155;27;20899;-82
2021/11/11 00:47:49;;;;;;;15.07;12.45;;;;;;;;;;5125950;27;21091;-83
2021/11/11 00:50:17;;;;;;;15.90;12.80;;;;;;;;;;5120207;27;20430;-83
2021/11/11 00:52:44;;;;;;;16.05;13.00;;;;;;;;;;5118716;27;20395;-83
2021/11/11 00:55:11;;;;;;;17.23;12.83;;;;;;;;;;5121064;27;20707;-82
2021/11/11 00:57:39;;;;;;;16.23;13.15;;;;;;;;;;5122298;27;20684;-82
2021/11/11 01:00:10;;;;;;;18.27;13.43;;;;;;;;;;5128333;27;20387;-82
2021/11/11 01:02:38;;;;;;;16.35;13.23;;;;;;;;;;5124679;27;20923;-82
2021/11/11 01:05:06;;;;;;;15.93;12.88;;;;;;;;;;5120550;27;20407;-82
2021/11/11 01:07:33;;;;;;;17.30;12.45;;;;;;;;;;5123345;27;20393;-82
2021/11/11 01:10:00;;;;;;;17.73;12.75;;;;;;;;;;5120383;27;20397;-81
2021/11/11 01:12:26;;;;;;;15.77;12.75;;;;;;;;;;5123957;27;20393;-82
2021/11/11 01:14:53;;;;;;;16.52;12.93;;;;;;;;;;5120655;27;20402;-82
2021/11/11 01:17:22;;;;;;;15.95;12.90;;;;;;;;;;5124270;27;20403;-82
2021/11/11 01:19:49;;;;;;;16.63;12.93;;;;;;;;;;5123531;27;20846;-82
2021/11/11 01:22:16;;;;;;;18.08;12.60;;;;;;;;;;5121124;27;20401;-82
2021/11/11 01:24:43;;;;;;;15.27;12.00;;;;;;;;;;5120955;27;20397;-82
2021/11/11 01:27:10;;;;;;;14.82;11.77;;;;;;;;;;5119776;27;20756;-82
2021/11/11 01:29:37;;;;;;;14.98;11.57;;;;;;;;;;5124677;27;20453;-82
2021/11/11 01:32:04;;;;;;;13.73;11.55;;;;;;;;;;5120738;27;20421;-82
2021/11/11 01:34:32;;;;;;;18.00;12.32;;;;;;;;;;5122777;27;20405;-82
2021/11/11 01:36:59;;;;;;;15.18;12.20;;;;;;;;;;5122109;27;20400;-82
2021/11/11 01:39:26;;;;;;;16.27;12.93;;;;;;;;;;5122169;27;21264;-82
2021/11/11 01:41:53;;;;;;;17.33;12.70;;;;;;;;;;5123151;27;20798;-83
2021/11/11 01:44:21;;;;;;;16.33;12.50;;;;;;;;;;5126504;27;20395;-82
2021/11/11 01:46:49;;;;;;;16.80;12.55;;;;;;;;;;5123547;27;20788;-83
2021/11/11 01:49:16;;;;;;;15.20;12.43;;;;;;;;;;5121333;27;20434;-82
2021/11/11 01:51:47;;;;;;;16.73;12.45;;;;;;;;;;5120262;27;20393;-82
2021/11/11 01:54:15;;;;;;;15.35;12.52;;;;;;;;;;5120289;27;20404;-82
2021/11/11 01:56:42;;;;;;;15.68;12.60;;;;;;;;;;5119792;27;20400;-82
2021/11/11 01:59:09;;;;;;;15.57;12.80;;;;;;;;;;5124382;27;20490;-82
2021/11/11 02:01:36;;;;;;;16.33;12.48;;;;;;;;;;5120898;27;20898;-82
2021/11/11 02:04:03;;;;;;;16.40;12.47;;;;;;;;;;5123902;27;20490;-82
2021/11/11 02:06:30;;;;;;;16.27;11.70;;;;;;;;;;5119734;27;20419;-82
2021/11/11 02:08:58;;;;;;;15.03;11.90;;;;;;;;;;5122143;27;20462;-82
2021/11/11 02:11:25;;;;;;;15.18;12.13;;;;;;;;;;5122710;27;20393;-82
2021/11/11 02:13:52;;;;;;;14.85;12.18;;;;;;;;;;5122940;27;20396;-82
2021/11/11 02:16:19;;;;;;;15.68;12.35;;;;;;;;;;5122053;27;20412;-82
2021/11/11 02:18:46;;;;;;;16.02;12.45;;;;;;;;;;5120236;27;20396;-81
2021/11/11 02:21:16;;;;;;;17.98;12.20;;;;;;;;;;5122685;27;20400;-82
2021/11/11 02:23:43;;;;;;;15.02;12.07;;;;;;;;;;5119253;27;20476;-82
2021/11/11 02:26:10;;;;;;;15.43;12.60;;;;;;;;;;5121632;27;20447;-82
2021/11/11 02:28:37;;;;;;;14.80;12.05;;;;;;;;;;5120502;27;20924;-82
2021/11/11 02:31:04;;;;;;;14.57;11.68;;;;;;;;;;5121823;27;20435;-82
2021/11/11 02:33:32;;;;;;;14.73;11.38;;;;;;;;;;5122357;27;20404;-82
2021/11/11 02:35:59;;;;;;;16.77;12.33;;;;;;;;;;5121107;27;20403;-82
2021/11/11 02:38:27;;;;;;;14.75;11.75;;;;;;;;;;5120212;27;20394;-82
2021/11/11 02:40:54;;;;;;;15.30;11.70;;;;;;;;;;5121456;27;20889;-82
2021/11/11 02:43:22;;;;;;;16.13;12.40;;;;;;;;;;5129568;27;20395;-82
2021/11/11 02:45:51;;;;;;;16.38;11.93;;;;;;;;;;5122984;27;20493;-82
2021/11/11 02:48:21;;;;;;;14.80;11.52;;;;;;;;;;5120713;27;20410;-82
2021/11/11 02:50:51;;;;;;;16.23;12.10;;;;;;;;;;5119548;27;20488;-82
2021/11/11 02:53:18;;;;;;;17.23;12.52;;;;;;;;;;5127742;27;20396;-82
2021/11/11 02:55:47;;;;;;;15.15;12.07;;;;;;;;;;5122571;27;20400;-82
2021/11/11 02:58:15;;;;;;;15.02;11.65;;;;;;;;;;5119224;27;20412;-82
2021/11/11 03:00:46;;;;;;;14.85;11.32;;;;;;;;;;5117811;27;20401;-82
2021/11/11 03:03:13;;;;;;;14.15;12.00;;;;;;;;;;5129799;27;20468;-82
2021/11/11 03:05:40;;;;;;;16.15;12.00;;;;;;;;;;5127774;27;20485;-82
2021/11/11 03:08:09;;;;;;;16.35;11.75;;;;;;;;;;5127950;27;20400;-82
2021/11/11 03:10:39;;;;;;;15.82;11.88;;;;;;;;;;5127760;27;20450;-82
2021/11/11 03:13:08;;;;;;;14.57;11.18;;;;;;;;;;5127951;27;20397;-82
2021/11/11 03:15:36;;;;;;;15.67;11.87;;;;;;;;;;5129003;27;20888;-82
2021/11/11 03:18:04;;;;;;;15.43;12.20;;;;;;;;;;5149336;27;20404;-82
2021/11/11 03:20:32;;;;;;;15.40;12.05;;;;;;;;;;5142222;27;20404;-82
2021/11/11 03:22:59;;;;;;;16.70;12.90;;;;;;;;;;5127315;27;20779;-82
2021/11/11 03:25:28;;;;;;;16.33;12.45;;;;;;;;;;5127459;27;20869;-82
2021/11/11 03:27:56;;;;;;;17.60;12.40;;;;;;;;;;5127243;28;20413;-82
2021/11/11 03:30:25;;;;;;;14.40;11.73;;;;;;;;;;5127624;28;20389;-82
2021/11/11 03:32:54;;;;;;;15.77;11.27;;;;;;;;;;5127625;27;20756;-83
2021/11/11 03:35:21;;;;;;;15.73;11.80;;;;;;;;;;5127256;28;20401;-82
2021/11/11 03:37:50;;;;;;;16.45;11.88;;;;;;;;;;5127375;28;20910;-82
2021/11/11 03:40:28;;;;;;;14.48;11.60;;;;;;;;;;5127301;28;20389;-82
2021/11/11 03:42:56;;;;;;;14.75;11.60;;;;;;;;;;5127105;28;20475;-83
2021/11/11 03:45:27;;;;;;;15.48;11.55;;;;;;;;;;5127378;27;20393;-82
2021/11/11 03:47:55;;;;;;;14.48;11.73;;;;;;;;;;5132949;27;20471;-82
2021/11/11 03:50:23;;;;;;;15.70;11.65;;;;;;;;;;5127404;28;20798;-82
2021/11/11 03:52:51;;;;;;;16.55;11.65;;;;;;;;;;5127224;28;20397;-82
2021/11/11 03:55:22;;;;;;;12.95;10.48;;;;;;;;;;5127310;28;20515;-82
2021/11/11 03:57:49;;;;;;;14.77;11.18;;;;;;;;;;5127557;28;20424;-82
2021/11/11 04:00:17;;;;;;;13.38;11.07;;;;;;;;;;5127185;28;20401;-82
2021/11/11 04:02:46;;;;;;;15.47;11.60;;;;;;;;;;5131818;27;21092;-82
2021/11/11 04:05:14;;;;;;;14.95;11.10;;;;;;;;;;5132259;27;20389;-83
2021/11/11 04:07:41;;;;;;;12.90;10.57;;;;;;;;;;5127209;28;20768;-82
2021/11/11 04:10:10;;;;;;;13.38;10.95;;;;;;;;;;5126952;28;20434;-82
2021/11/11 04:12:37;;;;;;;14.95;11.55;;;;;;;;;;5127010;28;20798;-82
2021/11/11 04:15:05;;;;;;;14.60;10.95;;;;;;;;;;5128697;27;20408;-83
2021/11/11 04:17:32;;;;;;;16.05;11.55;;;;;;;;;;5134381;27;20444;-82
2021/11/11 04:20:00;;;;;;;15.68;11.57;;;;;;;;;;5141892;27;20398;-82
2021/11/11 04:22:27;;;;;;;16.05;11.82;;;;;;;;;;5130696;27;20895;-82
2021/11/11 04:24:56;;;;;;;15.98;11.45;;;;;;;;;;5131056;27;20420;-82
2021/11/11 04:27:27;;;;;;;15.25;11.57;;;;;;;;;;5130601;27;20430;-82
2021/11/11 04:30:04;;;;;;;14.70;11.13;;;;;;;;;;5130813;27;20393;-82
2021/11/11 04:32:31;;;;;;;15.63;11.52;;;;;;;;;;5133250;27;20874;-82
2021/11/11 04:35:00;;;;;;;13.57;11.32;;;;;;;;;;5126808;27;20393;-82
2021/11/11 04:37:30;;;;;;;15.75;11.10;;;;;;;;;;5128819;27;20396;-82
2021/11/11 04:43:04;;;;;;;15.00;11.40;;;;;;;;;;5129281;27;20443;-82
2021/11/11 05:05:08;;;;;;;13.40;10.65;;;;;;;;;;5038784;28;20455;-82
2021/11/11 05:07:35;;;;;;;16.23;10.68;;;;;;;;;;5102076;27;20410;-82
2021/11/11 05:10:04;;;;;;;14.10;10.85;;;;;;;;;;5119653;27;20395;-82
2021/11/11 05:12:31;;;;;;;14.93;10.63;;;;;;;;;;5123354;27;20389;-83
2021/11/11 05:14:58;;;;;;;14.52;10.98;;;;;;;;;;5121089;27;20490;-82
2021/11/11 05:17:25;;;;;;;15.00;11.00;;;;;;;;;;5126141;27;20488;-82
2021/11/11 05:19:54;;;;;;;17.23;11.15;;;;;;;;;;5122544;27;20394;-83
2021/11/11 05:22:21;;;;;;;15.50;12.07;;;;;;;;;;5127396;27;20804;-82
2021/11/11 05:24:49;;;;;;;14.98;10.95;;;;;;;;;;5121514;27;20405;-82
2021/11/11 05:27:19;;;;;;;16.30;10.90;;;;;;;;;;5126143;27;20429;-82
2021/11/11 05:29:46;;;;;;;13.50;10.63;;;;;;;;;;5124064;27;20392;-82
2021/11/11 05:32:13;;;;;;;15.77;11.13;;;;;;;;;;5123795;27;20454;-83
2021/11/11 05:34:40;;;;;;;13.63;11.17;;;;;;;;;;5127735;27;20393;-82
2021/11/11 05:37:07;;;;;;;14.77;11.18;;;;;;;;;;5127245;27;20407;-83
2021/11/11 05:39:34;;;;;;;16.77;11.18;;;;;;;;;;5131145;27;20388;-83
2021/11/11 05:42:01;;;;;;;16.95;11.02;;;;;;;;;;5136092;27;20906;-82
2021/11/11 05:44:30;;;;;;;18.02;11.40;;;;;;;;;;5129621;27;20391;-83
2021/11/11 05:46:56;;;;;;;16.55;11.63;;;;;;;;;;5123798;27;20415;-82
2021/11/11 05:49:23;;;;;;;14.00;10.43;;;;;;;;;;5134095;27;20480;-83
2021/11/11 05:51:50;;;;;;;14.80;10.75;;;;;;;;;;5123059;27;20405;-82
2021/11/11 05:54:17;;;;;;;16.10;11.07;;;;;;;;;;5131470;27;20397;-83
2021/11/11 05:56:44;;;;;;;15.70;11.67;;;;;;;;;;5130632;27;20465;-82
2021/11/11 05:59:11;;;;;;;15.50;11.50;;;;;;;;;;5129281;27;20389;-82
2021/11/11 06:01:39;;;;;;;14.00;11.13;;;;;;;;;;5125114;27;20399;-82
2021/11/11 06:04:06;;;;;;;15.23;11.43;;;;;;;;;;5133901;27;20436;-82
2021/11/11 06:06:34;;;;;;;17.65;11.25;;;;;;;;;;5128564;27;20418;-83
2021/11/11 06:09:01;;;;;;;14.43;10.88;;;;;;;;;;5121919;27;20424;-83
2021/11/11 06:11:27;;;;;;;15.52;11.40;;;;;;;;;;5122598;27;20436;-82
2021/11/11 06:13:54;;;;;;;15.23;11.30;;;;;;;;;;5123686;27;20393;-82
2021/11/11 06:16:22;;;;;;;15.30;11.18;;;;;;;;;;5128510;27;20407;-82
2021/11/11 06:18:51;;;;;;;15.35;10.80;;;;;;;;;;5126087;27;20473;-82
2021/11/11 06:21:18;;;;;;;15.77;12.00;;;;;;;;;;5120202;27;20411;-82
2021/11/11 06:23:45;;;;;;;17.23;11.90;;;;;;;;;;5137130;27;20426;-82
2021/11/11 06:26:11;;;;;;;18.40;12.57;;;;;;;;;;5135673;27;20397;-82
2021/11/11 06:28:38;;;;;;;17.05;12.30;;;;;;;;;;5121358;27;20499;-82
2021/11/11 06:31:05;;;;;;;18.73;12.85;;;;;;;;;;5121813;27;20425;-82
2021/11/11 06:33:32;;;;;;;18.58;12.73;;;;;;;;;;5124253;27;20425;-82
2021/11/11 06:36:00;;;;;;;16.55;12.35;;;;;;;;;;5125118;27;20404;-82
2021/11/11 06:38:27;;;;;;;16.95;12.73;;;;;;;;;;5124706;27;20404;-82
2021/11/11 06:40:54;;;;;;;15.52;11.52;;;;;;;;;;5117573;27;20398;-83
2021/11/11 06:43:22;;;;;;;16.77;11.98;;;;;;;;;;5117047;27;20397;-82
2021/11/11 06:45:48;;;;;;;24.88;15.68;;;;;;;;;;5119178;27;20408;-82
2021/11/11 06:48:17;;;;;;;19.55;12.60;;;;;;;;;;5123757;27;20409;-82
2021/11/11 06:50:45;;;;;;;17.05;12.43;;;;;;;;;;5119009;27;20772;-82
2021/11/11 06:53:16;;;;;;;18.83;13.40;;;;;;;;;;5125389;27;20444;-81
2021/11/11 06:55:44;;;;;;;19.63;12.33;;;;;;;;;;5130365;27;20497;-81
2021/11/11 06:58:12;;;;;;;17.77;12.13;;;;;;;;;;5127685;27;20405;-82
2021/11/11 07:00:41;;;;;;;17.27;11.88;;;;;;;;;;5121563;27;20404;-82
2021/11/11 07:03:08;;;;;;;16.25;11.18;;;;;;;;;;5128099;27;20776;-82
2021/11/11 07:05:35;;;;;;;17.60;11.90;;;;;;;;;;5128515;27;20397;-81
2021/11/11 07:08:03;;;;;;;17.10;11.52;;;;;;;;;;5118233;27;20426;-81
2021/11/11 07:10:31;;;;;;;16.30;11.77;;;;;;;;;;5120265;27;20392;-82
2021/11/11 07:12:58;;;;;;;16.33;10.75;;;;;;;;;;5118479;27;20401;-84
2021/11/11 07:15:25;;;;;;;16.13;11.57;;;;;;;;;;5117256;27;20401;-81
2021/11/11 07:17:52;;;;;;;17.20;12.27;;;;;;;;;;5120886;27;20397;-81
2021/11/11 07:20:18;;;;;;;17.40;11.93;;;;;;;;;;5119422;27;20397;-81
2021/11/11 07:22:47;;;;;;;17.55;11.77;;;;;;;;;;5124431;27;21080;-81
2021/11/11 07:25:17;;;;;;;15.88;11.68;;;;;;;;;;5120645;27;20459;-81
2021/11/11 07:27:46;;;;;;;17.42;12.38;;;;;;;;;;5128390;27;20474;-81
2021/11/11 07:30:16;;;;;;;17.48;11.77;;;;;;;;;;5126350;27;20405;-81
2021/11/11 07:32:43;;;;;;;16.23;11.50;;;;;;;;;;5127270;27;20446;-81
2021/11/11 07:35:11;;;;;;;20.40;11.67;;;;;;;;;;5121503;27;20396;-81
2021/11/11 07:37:39;;;;;;;17.75;11.63;;;;;;;;;;5128439;27;20388;-81
2021/11/11 07:40:08;;;;;;;17.35;11.65;;;;;;;;;;5126459;27;20468;-81
2021/11/11 07:42:36;;;;;;;16.60;11.10;;;;;;;;;;5124378;27;20389;-82
2021/11/11 07:45:06;;;;;;;16.63;11.63;;;;;;;;;;5127140;27;20397;-81
2021/11/11 07:47:32;;;;;;;15.02;11.13;;;;;;;;;;5126388;27;20431;-82
2021/11/11 07:50:02;;;;;;;15.13;11.32;;;;;;;;;;5132058;27;20844;-82
2021/11/11 07:52:29;;;;;;;15.65;12.05;;;;;;;;;;5125137;27;20421;-82
2021/11/11 07:54:57;;;;;;;16.10;11.68;;;;;;;;;;5127577;27;20403;-82
2021/11/11 07:57:26;;;;;;;15.95;11.70;;;;;;;;;;5127310;27;20473;-82
2021/11/11 07:59:53;;;;;;;15.30;11.30;;;;;;;;;;5129223;27;20400;-81
2021/11/11 08:02:22;;;;;;;15.68;11.60;;;;;;;;;;5131699;27;21253;-83
2021/11/11 08:04:50;;;;;;;14.20;11.55;;;;;;;;;;5135455;27;20404;-81
2021/11/11 08:07:18;;;;;;;17.25;11.30;;;;;;;;;;5125747;27;20424;-73
2021/11/11 08:09:45;;;;;;;16.75;12.60;;;;;;;;;;5123075;27;20453;-74
2021/11/11 08:12:12;;;;;;;17.13;12.73;;;;;;;;;;5123289;27;20798;-74
2021/11/11 08:14:39;;;;;;;17.33;11.52;;;;;;;;;;5124165;27;20400;-73
2021/11/11 08:17:06;;;;;;;20.52;12.27;;;;;;;;;;5122049;27;20868;-74
2021/11/11 08:19:34;;;;;;;18.52;12.63;;;;;;;;;;5128301;27;20401;-73
2021/11/11 08:22:01;;;;;;;17.58;12.57;;;;;;;;;;5126429;27;20390;-73
2021/11/11 08:24:28;;;;;;;19.30;12.07;;;;;;;;;;5127115;27;20423;-74
2021/11/11 08:26:55;;;;;;;20.65;12.20;;;;;;;;;;5121302;27;20399;-74
2021/11/11 08:29:22;;;;;;;15.93;12.17;;;;;;;;;;5124024;27;20537;-82
2021/11/11 08:31:49;;;;;;;16.92;12.07;;;;;;;;;;5123421;27;20385;-83
2021/11/11 08:34:16;;;;;;;18.75;13.40;;;;;;;;;;5126039;27;20407;-83
2021/11/11 08:36:44;;;;;;;20.23;13.13;;;;;;;;;;5124845;27;20397;-83
2021/11/11 08:39:11;;;;;;;16.58;13.05;;;;;;;;;;5127331;27;20397;-82
2021/11/11 08:41:38;;;;;;;16.50;12.40;;;;;;;;;;5129143;27;20404;-83
2021/11/11 08:44:06;;;;;;;17.42;12.27;;;;;;;;;;5132857;27;21413;-83
2021/11/11 08:46:33;;;;;;;16.50;12.27;;;;;;;;;;5126529;27;20393;-83
2021/11/11 08:49:00;;;;;;;16.00;12.75;;;;;;;;;;5135688;27;20419;-83
2021/11/11 08:51:27;;;;;;;19.05;13.10;;;;;;;;;;5126120;27;20391;-83
2021/11/11 08:53:55;;;;;;;18.27;12.75;;;;;;;;;;5133053;27;20408;-83
2021/11/11 08:56:22;;;;;;;16.00;12.05;;;;;;;;;;5127288;27;20407;-83
2021/11/11 08:58:49;;;;;;;18.02;11.80;;;;;;;;;;5131501;27;20397;-83
2021/11/11 09:01:16;;;;;;;19.10;12.88;;;;;;;;;;5129156;27;20388;-83
2021/11/11 09:03:43;;;;;;;18.80;12.97;;;;;;;;;;5130164;27;20447;-83
2021/11/11 09:06:10;;;;;;;15.05;12.02;;;;;;;;;;5129569;27;20814;-83
2021/11/11 09:08:37;;;;;;;15.80;12.10;;;;;;;;;;5124143;27;20505;-83
2021/11/11 09:11:06;;;;;;;16.48;12.32;;;;;;;;;;5124612;27;20400;-83
2021/11/11 09:13:33;;;;;;;18.48;12.98;;;;;;;;;;5124433;27;20398;-83
2021/11/11 09:16:01;;;;;;;16.58;12.57;;;;;;;;;;5122112;27;20404;-83
2021/11/11 09:18:28;;;;;;;15.70;12.25;;;;;;;;;;5120037;27;20414;-84
2021/11/11 09:20:55;;;;;;;16.08;12.05;;;;;;;;;;5123838;27;20389;-83
2021/11/11 09:23:22;;;;;;;15.68;11.98;;;;;;;;;;5124887;27;20399;-83
2021/11/11 09:25:49;;;;;;;17.17;11.90;;;;;;;;;;5122647;27;20805;-83
2021/11/11 09:28:18;;;;;;;17.02;12.32;;;;;;;;;;5123454;27;20422;-83
2021/11/11 09:30:45;;;;;;;15.35;12.07;;;;;;;;;;5122354;27;20469;-82
2021/11/11 09:33:12;;;;;;;16.85;12.07;;;;;;;;;;5126410;27;20401;-83
2021/11/11 09:35:38;;;;;;;16.17;11.05;;;;;;;;;;5120313;27;20399;-83
2021/11/11 09:38:05;;;;;;;14.13;11.82;;;;;;;;;;5123900;27;20475;-83
2021/11/11 09:40:35;;;;;;;17.33;11.60;;;;;;;;;;5123989;27;20404;-83
2021/11/11 09:43:02;;;;;;;16.85;11.57;;;;;;;;;;5120188;27;20400;-83
2021/11/11 09:45:33;;;;;;;15.18;11.27;;;;;;;;;;5118031;27;20472;-83
2021/11/11 09:48:01;;;;;;;15.70;11.27;;;;;;;;;;5128101;27;20417;-84
2021/11/11 09:50:30;;;;;;;14.00;10.32;;;;;;;;;;5117894;27;20401;-83
2021/11/11 09:52:59;;;;;;;20.65;14.13;;;;;;;;;;5127224;27;20869;-83
2021/11/11 10:00:59;;;;;;;14.38;11.45;;;;;;;;;;5129598;27;20441;-83
2021/11/11 10:03:27;;;;;;;12.27;10.15;;;;;;;;;;5138672;27;20939;-83
2021/11/11 10:05:54;;;;;;;14.88;11.32;;;;;;;;;;5142051;27;20380;-84
2021/11/11 10:08:33;;;;;;;17.48;12.55;;;;;;;;;;5148915;27;20390;-83
2021/11/11 10:11:00;;;;;;;19.55;14.80;;;;;;;;;;5139708;27;20392;-83
2021/11/11 10:13:28;;;;;;;14.65;10.15;;;;;;;;;;5119185;27;20397;-83
2021/11/11 10:16:01;;;;;;;15.50;10.90;;;;;;;;;;5121223;27;20436;-83
2021/11/11 10:18:42;;;;;;;14.73;10.48;;;;;;;;;;5119591;27;20390;-83
2021/11/11 10:21:33;;;;;;;12.30;9.45;;;;;;;;;;5120771;27;20393;-83
2021/11/11 10:24:29;;;;;;;14.90;10.20;;;;;;;;;;5121716;27;20571;-83
2021/11/11 10:27:02;;;;;;;16.30;10.18;;;;;;;;;;5128925;27;20443;-83
2021/11/11 10:29:40;;;;;;;12.98;9.88;;;;;;;;;;5124551;27;20869;-82
2021/11/11 10:32:12;;;;;;;12.48;8.07;;;;;;;;;;5125988;27;20391;-83
2021/11/11 10:34:49;;;;;;;10.30;7.57;;;;;;;;;;5128876;27;20392;-83
2021/11/11 10:37:16;;;;;;;12.48;8.38;;;;;;;;;;5125723;27;20406;-83
2021/11/11 10:39:55;;;;;;;9.02;7.60;;;;;;;;;;5126832;27;20396;-83
2021/11/11 10:42:24;;;;;;;8.55;6.30;;;;;;;;;;5124096;27;20391;-83
2021/11/11 10:44:53;;;;;;;10.32;7.85;;;;;;;;;;5128211;27;20397;-83
2021/11/11 10:47:25;;;;;;;11.00;9.40;;;;;;;;;;5126858;27;20400;-83
2021/11/11 10:49:52;;;;;;;10.50;8.18;;;;;;;;;;5127973;27;20440;-83
2021/11/11 10:52:25;;;;;;;9.18;7.60;;;;;;;;;;5129734;27;20400;-83
2021/11/11 10:55:01;;;;;;;11.80;7.82;;;;;;;;;;5125779;27;20399;-83
2021/11/11 10:57:38;;;;;;;10.43;8.20;;;;;;;;;;5131613;27;20391;-83
2021/11/11 11:00:12;;;;;;;9.40;7.65;;;;;;;;;;5124840;27;20412;-83
2021/11/11 11:02:59;;;;;;;10.33;8.03;;;;;;;;;;5128080;27;20391;-83
2021/11/11 11:05:28;;;;;;;10.85;8.05;;;;;;;;;;5122465;27;20891;-82
2021/11/11 11:08:04;;;;;;;11.70;7.60;;;;;;;;;;5121804;27;20405;-83
2021/11/11 11:10:33;;;;;;;8.47;7.07;;;;;;;;;;5127360;27;20459;-83
2021/11/11 11:13:07;;;;;;;12.63;7.23;;;;;;;;;;5126404;27;20396;-82
2021/11/11 11:15:37;;;;;;;9.15;7.10;;;;;;;;;;5129976;27;20410;-82
2021/11/11 11:18:07;;;;;;;8.63;6.53;;;;;;;;;;5126166;27;20436;-83
2021/11/11 11:20:35;;;;;;;8.45;6.85;;;;;;;;;;5122846;27;20406;-83
2021/11/11 11:23:20;;;;;;;8.40;6.60;;;;;;;;;;5125402;27;20404;-82
2021/11/11 11:26:00;;;;;;;10.65;6.57;;;;;;;;;;5125023;27;20395;-83
2021/11/11 11:28:32;;;;;;;9.30;6.72;;;;;;;;;;5131189;27;20468;-83
2021/11/11 11:31:01;;;;;;;9.43;6.70;;;;;;;;;;5125253;27;20394;-83
2021/11/11 11:33:41;;;;;;;8.18;6.82;;;;;;;;;;5134058;27;20459;-82
2021/11/11 11:36:08;;;;;;;9.07;7.30;;;;;;;;;;5124789;27;20398;-83
2021/11/11 11:38:39;;;;;;;9.27;7.50;;;;;;;;;;5125974;27;20452;-83
2021/11/11 11:41:25;;;;;;;13.18;8.02;;;;;;;;;;5123125;27;20395;-83
2021/11/11 11:43:54;;;;;;;9.52;7.32;;;;;;;;;;5128188;27;20403;-82
2021/11/11 11:46:24;;;;;;;9.70;7.75;;;;;;;;;;5125463;27;20456;-82
2021/11/11 11:48:53;;;;;;;12.23;8.20;;;;;;;;;;5128828;27;20416;-82
2021/11/11 11:51:23;;;;;;;10.90;8.52;;;;;;;;;;5125058;27;20399;-82
2021/11/11 11:53:53;;;;;;;11.77;8.30;;;;;;;;;;5130112;27;20401;-82
2021/11/11 11:56:24;;;;;;;9.48;7.40;;;;;;;;;;5125917;27;20395;-82
2021/11/11 11:58:57;;;;;;;10.18;7.68;;;;;;;;;;5129797;27;20449;-82
2021/11/11 12:01:36;;;;;;;12.43;8.07;;;;;;;;;;5122977;27;20850;-82
2021/11/11 12:04:17;;;;;;;10.82;8.02;;;;;;;;;;5128450;27;20453;-82
2021/11/11 12:09:35;;;;;;;11.48;8.98;;;;;;;;;;5120535;28;20407;-82
2021/11/11 12:15:29;;;;;;;14.43;9.95;;;;;;;;;;5124452;27;20423;-83
2021/11/11 12:29:47;;;;;;;13.10;11.20;;;;;;;;;;5039550;28;20466;-82
2021/11/11 12:40:36;;;;;;;15.07;12.27;;;;;;;;;;5125770;27;20646;-82
2021/11/11 12:43:14;;;;;;;18.30;12.27;;;;;;;;;;5123138;27;20491;-82
2021/11/11 12:45:41;;;;;;;18.37;12.30;;;;;;;;;;5121685;27;20401;-82
2021/11/11 12:48:21;;;;;;;18.42;12.15;;;;;;;;;;5121237;27;20417;-82
2021/11/11 12:50:49;;;;;;;18.58;12.73;;;;;;;;;;5132093;27;20886;-73
2021/11/11 12:53:44;;;;;;;14.73;11.77;;;;;;;;;;5130695;27;20458;-83
2021/11/11 12:56:27;;;;;;;16.30;11.75;;;;;;;;;;5128265;27;20408;-82
2021/11/11 12:59:07;;;;;;;15.52;12.23;;;;;;;;;;5125798;27;20495;-82
2021/11/11 13:01:38;;;;;;;13.50;11.10;;;;;;;;;;5103125;27;20898;-82
2021/11/11 13:04:14;;;;;;;16.65;11.77;;;;;;;;;;5128852;27;20414;-83
2021/11/11 13:06:44;;;;;;;13.55;12.13;;;;;;;;;;5121392;27;20412;-82
2021/11/11 13:09:24;;;;;;;14.50;11.80;;;;;;;;;;5124738;27;20432;-81
2021/11/11 13:11:53;;;;;;;13.68;11.45;;;;;;;;;;5125767;27;20407;-80
2021/11/11 13:14:21;;;;;;;14.13;11.38;;;;;;;;;;5127093;27;20405;-80
2021/11/11 13:17:14;;;;;;;15.75;11.85;;;;;;;;;;5125651;27;20392;-79
2021/11/11 13:19:45;;;;;;;13.83;11.30;;;;;;;;;;5125340;27;20450;-80
2021/11/11 13:22:17;;;;;;;13.00;10.40;;;;;;;;;;5128357;27;20395;-80
2021/11/11 13:27:56;;;;;;;14.43;10.55;;;;;;;;;;5080584;27;20407;-80
2021/11/11 13:59:26;;;;;;;14.88;11.23;;;;;;;;;;5127521;27;20384;-81
2021/11/11 14:05:04;;;;;;;12.00;10.10;;;;;;;;;;5122910;27;20390;-80
2021/11/11 15:17:51;;;;;;;33.25;27.35;;;;;;;;;;5102939;27;20394;-79
2021/11/11 16:22:04;;;;;;;106.43;62.55;;;;;;;;;;5135972;27;20390;-81
2021/11/11 16:24:35;;;;;;;98.97;61.10;;;;;;;;;;5121945;27;20408;-78
2021/11/11 16:27:04;;;;;;;55.88;37.75;;;;;;;;;;5127259;27;20498;-77
2021/11/11 16:29:32;;;;;;;40.78;31.92;;;;;;;;;;5114667;27;21026;-78
2021/11/11 16:32:00;;;;;;;42.45;32.13;;;;;;;;;;5120763;27;20425;-79
2021/11/11 16:34:29;;;;;;;41.83;29.52;;;;;;;;;;5126373;27;20488;-77
2021/11/11 16:36:57;;;;;;;35.03;27.33;;;;;;;;;;5122057;27;20484;-79
2021/11/11 16:39:25;;;;;;;31.95;25.83;;;;;;;;;;5126183;27;20389;-78
2021/11/11 16:41:53;;;;;;;33.97;25.40;;;;;;;;;;5126652;27;20397;-78
2021/11/11 16:44:21;;;;;;;31.50;26.25;;;;;;;;;;5120044;27;20451;-78
2021/11/11 16:46:51;;;;;;;33.25;25.83;;;;;;;;;;5133200;27;20399;-79
2021/11/11 16:49:19;;;;;;;32.47;26.08;;;;;;;;;;5125477;27;21202;-80
2021/11/11 16:51:46;;;;;;;41.25;30.38;;;;;;;;;;5124178;27;20412;-80
2021/11/11 16:54:14;;;;;;;43.75;28.48;;;;;;;;;;5117532;27;20416;-79
2021/11/11 16:56:41;;;;;;;39.90;29.45;;;;;;;;;;5119249;27;20404;-81
2021/11/11 16:59:07;;;;;;;35.13;27.05;;;;;;;;;;5125222;27;20484;-80
2021/11/11 17:01:36;;;;;;;37.28;27.38;;;;;;;;;;5119473;27;20408;-80
2021/11/11 17:04:05;;;;;;;40.08;28.95;;;;;;;;;;5115319;27;21740;-80
2021/11/11 17:06:32;;;;;;;44.88;34.17;;;;;;;;;;5119980;27;20402;-79
2021/11/11 17:08:58;;;;;;;41.60;32.67;;;;;;;;;;5124834;27;20420;-80
2021/11/11 17:11:25;;;;;;;37.00;29.50;;;;;;;;;;5124729;27;20397;-80
2021/11/11 17:13:52;;;;;;;36.78;29.73;;;;;;;;;;5125359;27;20393;-80
2021/11/11 17:16:22;;;;;;;32.83;27.20;;;;;;;;;;5122204;27;20888;-80
2021/11/11 17:18:51;;;;;;;31.63;25.58;;;;;;;;;;5128976;27;20908;-80
2021/11/11 17:21:21;;;;;;;35.05;26.02;;;;;;;;;;5124916;27;20968;-80
2021/11/11 17:23:54;;;;;;;33.78;25.20;;;;;;;;;;5122404;27;20456;-80
2021/11/11 17:26:32;;;;;;;38.30;24.52;;;;;;;;;;5123318;27;20418;-80
2021/11/11 17:29:00;;;;;;;32.75;25.25;;;;;;;;;;5127572;27;20462;-80
2021/11/11 17:31:27;;;;;;;32.65;24.77;;;;;;;;;;5120016;27;20469;-79
2021/11/11 17:33:54;;;;;;;33.25;24.80;;;;;;;;;;5126118;27;20397;-80
2021/11/11 17:36:22;;;;;;;31.17;24.83;;;;;;;;;;5126161;27;20640;-80
2021/11/11 17:38:52;;;;;;;33.40;25.40;;;;;;;;;;5126133;27;20393;-79
2021/11/11 17:41:20;;;;;;;35.92;25.63;;;;;;;;;;5126708;27;20412;-80
2021/11/11 17:43:49;;;;;;;32.58;25.08;;;;;;;;;;5124216;27;21067;-80
2021/11/11 17:46:19;;;;;;;30.52;24.85;;;;;;;;;;5121038;27;20411;-81
2021/11/11 17:48:50;;;;;;;31.05;25.13;;;;;;;;;;5119766;27;20408;-79
2021/11/11 17:51:32;;;;;;;33.88;25.10;;;;;;;;;;5119743;27;20440;-79
2021/11/11 17:54:05;;;;;;;34.88;26.38;;;;;;;;;;5124461;27;20405;-80
2021/11/11 17:56:33;;;;;;;33.40;25.08;;;;;;;;;;5121802;27;20504;-81
2021/11/11 17:59:00;;;;;;;35.42;26.25;;;;;;;;;;5119522;27;20428;-80
2021/11/11 18:01:30;;;;;;;33.30;26.13;;;;;;;;;;5120587;27;20761;-81
2021/11/11 18:03:57;;;;;;;34.10;26.38;;;;;;;;;;5121796;27;20499;-80
2021/11/11 18:06:28;;;;;;;34.85;25.77;;;;;;;;;;5122472;27;20433;-80
2021/11/11 18:08:58;;;;;;;34.85;27.33;;;;;;;;;;5124546;27;20423;-80
2021/11/11 18:11:32;;;;;;;39.45;27.55;;;;;;;;;;5120047;27;20483;-80